createdAt,value
2018-07-31T05:28:15.443Z,99.90
2018-07-31T05:30:44.354Z,99.90
2018-07-31T05:33:13.231Z,99.90
2018-07-31T05:35:42.143Z,99.90
2018-07-31T05:38:11.362Z,99.90
2018-07-31T05:40:40.699Z,99.90
2018-07-31T05:43:09.584Z,99.90
2018-07-31T05:45:38.740Z,99.90
2018-07-31T05:48:07.634Z,99.90
2018-07-31T05:50:36.651Z,99.90
2018-07-31T05:53:05.563Z,99.90
2018-07-31T05:55:34.458Z,99.90
2018-07-31T05:58:03.362Z,99.90
2018-07-31T06:00:32.238Z,99.90
2018-07-31T06:03:01.135Z,99.90
2018-07-31T06:05:30.021Z,99.90
2018-07-31T06:07:58.926Z,99.90
2018-07-31T06:10:27.822Z,99.90
2018-07-31T06:12:56.747Z,99.90
2018-07-31T06:17:54.336Z,99.90
2018-07-31T06:20:23.283Z,99.90
2018-07-31T06:22:52.178Z,99.90
2018-07-31T06:25:21.064Z,99.90
2018-07-31T06:27:50.030Z,99.90
2018-07-31T06:30:18.950Z,99.90
2018-07-31T06:32:47.897Z,99.90
2018-07-31T06:35:16.778Z,99.90
2018-07-31T06:37:45.702Z,99.90
2018-07-31T06:40:14.580Z,99.90
2018-07-31T06:42:43.470Z,99.90
2018-07-31T06:45:12.342Z,99.90
2018-07-31T06:47:41.277Z,99.90
2018-07-31T06:50:10.148Z,99.90
2018-07-31T06:52:39.051Z,99.90
2018-07-31T06:55:07.926Z,99.90
2018-07-31T06:57:36.847Z,99.90
2018-07-31T07:00:05.854Z,99.70
2018-07-31T07:02:34.798Z,98.60
2018-07-31T07:05:03.923Z,96.80
2018-07-31T07:07:32.853Z,97.40
2018-07-31T07:10:01.736Z,98.20
2018-07-31T07:12:30.636Z,96.50
2018-07-31T07:14:59.526Z,96.10
2018-07-31T07:17:28.456Z,96.30
2018-07-31T07:19:57.349Z,95.50
2018-07-31T07:22:26.255Z,95.30
2018-07-31T07:27:23.854Z,94.40
2018-07-31T07:29:52.757Z,93.50
2018-07-31T07:32:21.693Z,93.20
2018-07-31T07:34:50.582Z,93.60
2018-07-31T07:37:19.473Z,92.80
2018-07-31T07:39:48.396Z,92.90
2018-07-31T07:42:17.275Z,93.60
2018-07-31T07:44:46.180Z,93.20
2018-07-31T07:47:15.077Z,92.30
2018-07-31T07:49:43.967Z,91.30
2018-07-31T07:52:12.946Z,91.30
2018-07-31T07:54:41.899Z,91.70
2018-07-31T07:57:10.787Z,91.30
2018-07-31T07:59:39.706Z,92.40
2018-07-31T08:02:08.600Z,92.40
2018-07-31T08:04:37.507Z,91.50
2018-07-31T08:07:06.608Z,91.50
2018-07-31T08:09:35.507Z,91.40
2018-07-31T08:12:04.396Z,91.70
2018-07-31T08:14:33.315Z,90.40
2018-07-31T08:17:02.194Z,90.30
2018-07-31T08:19:31.091Z,91.30
2018-07-31T08:21:59.985Z,92.00
2018-07-31T08:24:28.882Z,90.70
2018-07-31T08:26:57.795Z,91.40
2018-07-31T08:29:26.788Z,91.10
2018-07-31T08:31:55.687Z,92.80
2018-07-31T08:34:25.013Z,92.70
2018-07-31T08:36:53.850Z,92.20
2018-07-31T08:39:22.774Z,92.90
2018-07-31T08:41:51.658Z,92.80
2018-07-31T08:44:20.589Z,92.80
2018-07-31T08:46:49.494Z,93.00
2018-07-31T08:49:18.396Z,93.20
2018-07-31T08:51:47.302Z,92.80
2018-07-31T08:54:16.398Z,93.60
2018-07-31T08:56:45.295Z,93.40
2018-07-31T08:59:14.316Z,93.10
2018-07-31T09:01:44.332Z,93.20
2018-07-31T09:04:13.470Z,91.60
2018-07-31T09:06:42.366Z,90.30
2018-07-31T09:09:12.121Z,90.20
2018-07-31T09:11:41.066Z,90.10
2018-07-31T09:14:10.289Z,90.60
2018-07-31T09:16:39.195Z,88.20
2018-07-31T09:19:08.092Z,89.10
2018-07-31T09:21:37.106Z,88.60
2018-07-31T09:24:05.980Z,87.00
2018-07-31T09:26:34.899Z,83.80
2018-07-31T09:29:03.885Z,84.70
2018-07-31T09:31:32.785Z,81.80
2018-07-31T09:34:01.683Z,82.20
2018-07-31T09:36:30.605Z,82.60
2018-07-31T09:38:59.482Z,81.00
2018-07-31T09:41:28.384Z,80.90
2018-07-31T09:43:57.274Z,79.40
2018-07-31T09:46:26.174Z,79.80
2018-07-31T09:48:55.066Z,77.40
2018-07-31T09:51:23.962Z,81.90
2018-07-31T09:53:52.906Z,76.00
2018-07-31T09:56:21.811Z,75.60
2018-07-31T09:58:50.687Z,72.60
2018-07-31T10:01:20.123Z,75.50
2018-07-31T10:03:49.715Z,68.70
2018-07-31T10:06:18.601Z,67.50
2018-07-31T10:08:47.513Z,67.30
2018-07-31T10:11:16.408Z,65.10
2018-07-31T10:13:45.377Z,66.80
2018-07-31T10:16:14.354Z,65.60
2018-07-31T10:18:43.300Z,66.00
2018-07-31T10:21:12.260Z,69.50
2018-07-31T10:23:41.146Z,66.30
2018-07-31T10:26:10.043Z,68.00
2018-07-31T10:28:38.930Z,68.30
2018-07-31T10:31:07.825Z,70.50
2018-07-31T10:33:36.707Z,67.60
2018-07-31T10:36:05.599Z,66.90
2018-07-31T10:38:34.475Z,66.30
2018-07-31T10:41:03.366Z,65.40
2018-07-31T10:43:32.272Z,63.60
2018-07-31T10:46:01.155Z,65.90
2018-07-31T10:48:30.062Z,63.30
2018-07-31T10:50:58.986Z,63.10
2018-07-31T10:53:27.827Z,60.30
2018-07-31T10:55:56.732Z,61.10
2018-07-31T10:58:25.988Z,61.20
2018-07-31T11:00:54.987Z,61.80
2018-07-31T11:03:23.962Z,59.90
2018-07-31T11:05:52.851Z,59.60
2018-07-31T11:08:21.746Z,60.60
2018-07-31T11:10:50.631Z,58.80
2018-07-31T11:13:19.547Z,60.50
2018-07-31T11:15:48.441Z,57.10
2018-07-31T11:18:17.350Z,59.90
2018-07-31T11:20:46.278Z,57.40
2018-07-31T11:23:15.740Z,56.70
2018-07-31T11:25:44.626Z,56.90
2018-07-31T11:28:13.606Z,56.70
2018-07-31T11:30:43.087Z,55.10
2018-07-31T11:33:12.018Z,55.70
2018-07-31T11:35:40.897Z,56.00
2018-07-31T11:38:09.804Z,55.20
2018-07-31T11:40:38.678Z,56.00
2018-07-31T11:43:07.592Z,54.00
2018-07-31T11:45:36.557Z,54.30
2018-07-31T11:48:05.418Z,55.60
2018-07-31T11:50:34.373Z,56.70
2018-07-31T11:53:03.286Z,54.20
2018-07-31T11:55:32.348Z,52.90
2018-07-31T11:58:01.262Z,52.90
2018-07-31T12:00:30.151Z,52.60
2018-07-31T12:02:59.033Z,51.30
2018-07-31T12:05:27.938Z,51.80
2018-07-31T12:07:56.963Z,52.30
2018-07-31T12:10:25.879Z,50.60
2018-07-31T12:12:54.860Z,52.20
2018-07-31T12:15:23.763Z,51.10
2018-07-31T12:20:21.694Z,50.90
2018-07-31T12:22:50.589Z,52.50
2018-07-31T12:25:19.592Z,53.60
2018-07-31T12:27:48.475Z,53.20
2018-07-31T12:30:17.358Z,53.20
2018-07-31T12:32:46.268Z,52.60
2018-07-31T12:35:15.180Z,53.60
2018-07-31T12:37:44.061Z,55.30
2018-07-31T12:40:13.044Z,52.40
2018-07-31T12:42:42.041Z,54.00
2018-07-31T12:45:10.917Z,52.10
2018-07-31T12:47:39.806Z,51.20
2018-07-31T12:50:08.800Z,51.40
2018-07-31T12:52:37.662Z,51.10
2018-07-31T12:55:06.611Z,51.60
2018-07-31T12:57:35.513Z,52.20
2018-07-31T13:00:04.686Z,48.80
2018-07-31T13:02:33.584Z,49.50
2018-07-31T13:05:02.471Z,51.00
2018-07-31T13:07:31.363Z,51.00
2018-07-31T13:10:00.279Z,48.90
2018-07-31T13:12:29.470Z,49.80
2018-07-31T13:14:58.363Z,48.80
2018-07-31T13:17:27.251Z,48.90
2018-07-31T13:19:56.148Z,48.40
2018-07-31T13:22:25.035Z,47.40
2018-07-31T13:24:53.933Z,48.30
2018-07-31T13:27:22.819Z,48.40
2018-07-31T13:29:51.742Z,49.10
2018-07-31T13:32:20.625Z,49.20
2018-07-31T13:34:49.517Z,49.90
2018-07-31T13:37:18.635Z,51.30
2018-07-31T13:39:47.547Z,49.30
2018-07-31T13:42:16.544Z,50.40
2018-07-31T13:44:45.418Z,50.70
2018-07-31T13:47:14.406Z,51.00
2018-07-31T13:49:43.293Z,49.90
2018-07-31T13:52:12.192Z,50.50
2018-07-31T13:54:41.097Z,50.70
2018-07-31T13:57:09.978Z,49.00
2018-07-31T13:59:38.882Z,48.90
2018-07-31T14:02:07.846Z,48.80
2018-07-31T14:04:36.750Z,48.10
2018-07-31T14:07:05.714Z,49.20
2018-07-31T14:09:34.595Z,49.60
2018-07-31T14:14:32.055Z,49.50
2018-07-31T14:17:00.947Z,48.50
2018-07-31T14:19:29.841Z,50.00
2018-07-31T14:21:58.740Z,49.60
2018-07-31T14:24:27.677Z,49.20
2018-07-31T14:26:56.542Z,49.60
2018-07-31T14:29:25.422Z,51.40
2018-07-31T14:31:54.326Z,50.30
2018-07-31T14:34:23.458Z,51.20
2018-07-31T14:36:52.377Z,48.70
2018-07-31T14:39:21.246Z,47.70
2018-07-31T14:41:50.316Z,48.40
2018-07-31T14:44:19.205Z,48.80
2018-07-31T14:46:48.090Z,49.20
2018-07-31T14:49:16.987Z,50.00
2018-07-31T14:51:45.874Z,51.20
2018-07-31T14:54:15.003Z,52.00
2018-07-31T14:56:43.922Z,51.70
2018-07-31T14:59:12.882Z,52.20
2018-07-31T15:01:41.779Z,50.30
2018-07-31T15:04:10.671Z,50.20
2018-07-31T15:06:39.588Z,50.10
2018-07-31T15:09:09.407Z,50.70
2018-07-31T15:11:38.323Z,51.60
2018-07-31T15:14:07.210Z,50.60
2018-07-31T15:16:36.169Z,50.50
2018-07-31T15:19:05.081Z,50.60
2018-07-31T15:21:33.991Z,51.00
2018-07-31T15:24:02.884Z,51.00
2018-07-31T15:26:31.894Z,50.50
2018-07-31T15:29:00.809Z,51.80
2018-07-31T15:31:29.771Z,50.60
2018-07-31T15:33:58.676Z,51.60
2018-07-31T15:36:27.629Z,50.40
2018-07-31T15:38:56.523Z,51.20
2018-07-31T15:41:25.486Z,51.60
2018-07-31T15:43:54.370Z,50.70
2018-07-31T15:46:23.717Z,50.80
2018-07-31T15:48:52.804Z,50.80
2018-07-31T15:51:21.942Z,51.00
2018-07-31T15:53:51.266Z,50.90
2018-07-31T15:56:20.192Z,52.10
2018-07-31T15:58:49.641Z,51.40
2018-07-31T16:01:18.867Z,51.10
2018-07-31T16:03:48.266Z,51.50
2018-07-31T16:06:17.532Z,51.20
2018-07-31T16:08:47.414Z,51.10
2018-07-31T16:11:17.980Z,51.20
2018-07-31T16:13:47.613Z,51.10
2018-07-31T16:16:17.131Z,51.80
2018-07-31T16:18:46.530Z,51.70
2018-07-31T16:21:16.545Z,52.00
2018-07-31T16:23:47.779Z,51.00
2018-07-31T16:26:16.904Z,51.60
2018-07-31T16:28:45.888Z,52.10
2018-07-31T16:31:14.950Z,52.80
2018-07-31T16:33:43.988Z,54.10
2018-07-31T16:36:13.004Z,55.00
2018-07-31T16:38:42.234Z,56.70
2018-07-31T16:41:11.210Z,57.20
2018-07-31T16:43:40.115Z,57.70
2018-07-31T16:46:10.826Z,58.00
2018-07-31T16:48:40.181Z,59.10
2018-07-31T16:51:09.134Z,59.60
2018-07-31T16:53:39.154Z,60.50
2018-07-31T16:56:09.468Z,60.40
2018-07-31T16:58:39.230Z,60.90
2018-07-31T17:01:09.341Z,61.00
2018-07-31T17:03:38.433Z,61.60
2018-07-31T17:06:07.344Z,62.70
2018-07-31T17:08:38.167Z,63.60
2018-07-31T17:11:08.048Z,63.90
2018-07-31T17:13:37.923Z,65.40
2018-07-31T17:16:07.470Z,65.10
2018-07-31T17:18:37.398Z,65.50
2018-07-31T17:21:06.334Z,66.00
2018-07-31T17:23:36.707Z,66.90
2018-07-31T17:26:06.211Z,67.90
2018-07-31T17:28:35.134Z,68.30
2018-07-31T17:31:03.998Z,68.80
2018-07-31T17:33:32.891Z,68.20
2018-07-31T17:36:02.934Z,67.50
2018-07-31T17:38:33.259Z,67.80
2018-07-31T17:41:03.567Z,67.50
2018-07-31T17:43:34.053Z,68.00
2018-07-31T17:48:33.370Z,71.30
2018-07-31T17:51:02.638Z,71.80
2018-07-31T17:53:34.380Z,72.10
2018-07-31T17:56:04.961Z,71.60
2018-07-31T17:58:34.377Z,72.40
2018-07-31T18:01:04.114Z,72.30
2018-07-31T18:03:33.992Z,73.10
2018-07-31T18:06:03.028Z,74.10
2018-07-31T18:08:31.960Z,74.50
2018-07-31T18:11:03.001Z,75.20
2018-07-31T18:13:34.146Z,75.60
2018-07-31T18:16:04.048Z,76.30
2018-07-31T18:18:33.835Z,76.50
2018-07-31T18:21:03.438Z,77.50
2018-07-31T18:23:32.703Z,78.00
2018-07-31T18:28:30.114Z,79.10
2018-07-31T18:30:58.996Z,79.50
2018-07-31T18:33:27.936Z,80.20
2018-07-31T18:35:56.867Z,80.60
2018-07-31T18:38:25.758Z,81.50
2018-07-31T18:40:54.670Z,81.80
2018-07-31T18:43:23.552Z,82.50
2018-07-31T18:45:52.514Z,83.50
2018-07-31T18:48:21.394Z,84.00
2018-07-31T18:50:50.312Z,85.00
2018-07-31T18:53:19.281Z,86.00
2018-07-31T18:55:48.113Z,87.20
2018-07-31T18:58:17.151Z,86.70
2018-07-31T19:00:46.083Z,87.30
2018-07-31T19:03:14.981Z,87.80
2018-07-31T19:05:43.932Z,88.50
2018-07-31T19:08:12.823Z,89.10
2018-07-31T19:10:41.702Z,89.50
2018-07-31T19:13:10.678Z,90.00
2018-07-31T19:15:39.523Z,90.30
2018-07-31T19:18:08.439Z,90.50
2018-07-31T19:23:05.907Z,90.30
2018-07-31T19:25:34.924Z,90.40
2018-07-31T19:28:03.872Z,90.50
2018-07-31T19:30:32.690Z,90.80
2018-07-31T19:33:01.677Z,91.20
2018-07-31T19:35:30.583Z,91.40
2018-07-31T19:37:59.498Z,91.40
2018-07-31T19:40:28.454Z,91.70
2018-07-31T19:42:57.651Z,92.00
2018-07-31T19:45:27.547Z,92.20
2018-07-31T19:47:56.508Z,92.20
2018-07-31T19:50:25.490Z,92.40
2018-07-31T19:52:54.370Z,92.60
2018-07-31T19:55:23.980Z,92.90
2018-07-31T19:57:53.143Z,93.20
2018-07-31T20:02:51.468Z,93.50
2018-07-31T20:05:20.937Z,93.60
2018-07-31T20:07:50.438Z,93.80
2018-07-31T20:10:19.463Z,94.20
2018-07-31T20:12:48.349Z,94.30
2018-07-31T20:15:17.379Z,94.40
2018-07-31T20:17:47.083Z,94.60
2018-07-31T20:20:16.458Z,95.10
2018-07-31T20:22:45.581Z,95.00
2018-07-31T20:25:14.678Z,95.20
2018-07-31T20:27:44.097Z,95.50
2018-07-31T20:30:13.036Z,95.70
2018-07-31T20:32:42.473Z,95.50
2018-07-31T20:35:11.380Z,95.50
2018-07-31T20:37:41.255Z,95.50
2018-07-31T20:40:11.104Z,94.90
2018-07-31T20:42:40.595Z,94.90
2018-07-31T20:45:09.571Z,94.90
2018-07-31T20:47:39.066Z,94.80
2018-07-31T20:50:07.978Z,94.00
2018-07-31T20:52:37.171Z,93.60
2018-07-31T20:55:06.208Z,93.60
2018-07-31T20:57:35.784Z,93.60
2018-07-31T21:00:05.590Z,93.20
2018-07-31T21:02:35.027Z,92.60
2018-07-31T21:05:04.473Z,92.80
2018-07-31T21:07:33.596Z,92.60
2018-07-31T21:10:02.701Z,91.70
2018-07-31T21:12:31.889Z,91.40
2018-07-31T21:15:00.850Z,91.30
2018-07-31T21:17:30.026Z,90.20
2018-07-31T21:19:59.721Z,90.00
2018-07-31T21:22:28.952Z,89.90
2018-07-31T21:24:57.932Z,89.60
2018-07-31T21:27:26.859Z,89.50
2018-07-31T21:29:55.779Z,89.50
2018-07-31T21:32:25.026Z,89.50
2018-07-31T21:34:54.087Z,89.50
2018-07-31T21:37:23.098Z,89.90
2018-07-31T21:39:52.142Z,89.50
2018-07-31T21:42:21.399Z,89.40
2018-07-31T21:44:50.459Z,89.40
2018-07-31T21:47:19.523Z,88.70
2018-07-31T21:49:48.419Z,88.80
2018-07-31T21:52:17.792Z,89.20
2018-07-31T21:54:46.999Z,89.20
2018-07-31T21:57:15.966Z,90.00
2018-07-31T21:59:45.053Z,90.00
2018-07-31T22:02:14.444Z,90.20
2018-07-31T22:04:43.717Z,90.40
2018-07-31T22:07:13.023Z,90.70
2018-07-31T22:09:44.145Z,91.00
2018-07-31T22:12:13.419Z,91.20
2018-07-31T22:14:43.951Z,91.60
2018-07-31T22:17:13.540Z,91.90
2018-07-31T22:19:42.551Z,92.00
2018-07-31T22:22:11.881Z,92.40
2018-07-31T22:24:40.915Z,92.70
2018-07-31T22:27:10.012Z,93.90
2018-07-31T22:32:08.293Z,96.20
2018-07-31T22:34:37.378Z,96.90
2018-07-31T22:37:06.278Z,97.50
2018-07-31T22:39:35.460Z,97.80
2018-07-31T22:42:04.551Z,98.30
2018-07-31T22:44:40.304Z,98.70
2018-07-31T22:47:09.402Z,98.90
2018-07-31T22:49:38.440Z,99.20
2018-07-31T22:52:07.745Z,99.50
2018-07-31T22:54:36.682Z,99.70
2018-07-31T22:57:06.230Z,99.90
2018-07-31T22:59:36.225Z,99.90
2018-07-31T23:02:05.391Z,99.90
2018-07-31T23:04:34.346Z,99.90
2018-07-31T23:07:03.272Z,99.90
2018-07-31T23:09:32.556Z,99.90
2018-07-31T23:12:01.781Z,99.90
2018-07-31T23:14:30.654Z,99.90
2018-07-31T23:16:59.662Z,99.90
2018-07-31T23:19:28.585Z,99.90
2018-07-31T23:21:57.549Z,99.90
2018-07-31T23:24:26.634Z,99.90
2018-07-31T23:26:56.221Z,99.90
2018-07-31T23:29:26.366Z,99.90
2018-07-31T23:31:55.842Z,99.90
2018-07-31T23:34:25.972Z,99.90
2018-07-31T23:36:54.942Z,99.90
2018-07-31T23:39:23.963Z,99.90
2018-07-31T23:41:52.953Z,99.90
2018-07-31T23:44:22.456Z,99.90
2018-07-31T23:46:51.875Z,99.90
2018-07-31T23:49:20.856Z,99.90
2018-07-31T23:51:49.783Z,99.90
2018-07-31T23:54:18.668Z,99.90
2018-07-31T23:56:47.551Z,99.90
2018-07-31T23:59:16.460Z,99.90
